Time;durP1;ratioP1;P1;durP2;ratioP2;P2;SDS_P1;SDS_P2;PMS_P1;PMS_P2;Temp;Humidity;BMP_temperature;BMP_pressure;BME280_temperature;BME280_humidity;BME280_pressure;Samples;Min_cycle;Max_cycle;Signal;HPM_P1;HPM_P2
2024/01/18 00:00:15;;;;;;;40.30;21.90;;;;;;;-0.02;100.00;97858.65;52452;1264;1097481;-81
2024/01/18 00:03:20;;;;;;;40.50;22.30;;;;;;;0.00;100.00;97852.83;52422;1269;1097603;-82
2024/01/18 00:06:07;;;;;;;37.90;21.50;;;;;;;0.01;100.00;97852.89;52353;1264;1096821;-82
2024/01/18 00:08:53;;;;;;;33.70;19.10;;;;;;;0.04;100.00;97861.86;52550;1261;1097311;-82
2024/01/18 00:11:38;;;;;;;34.70;20.60;;;;;;;0.06;100.00;97851.61;52300;1261;1097864;-82
2024/01/18 00:14:24;;;;;;;37.50;20.20;;;;;;;0.08;100.00;97851.48;52336;1259;1097450;-83
2024/01/18 00:17:10;;;;;;;43.40;22.20;;;;;;;0.12;100.00;97844.77;52455;1258;1096678;-82
2024/01/18 00:19:57;;;;;;;35.90;20.70;;;;;;;0.14;100.00;97830.59;52592;1259;1096730;-82
2024/01/18 00:22:42;;;;;;;37.80;21.60;;;;;;;0.16;100.00;97835.98;52396;1263;1099560;-82
2024/01/18 00:25:28;;;;;;;40.20;23.00;;;;;;;0.18;100.00;97842.77;52485;1263;1097075;-82
2024/01/18 00:28:13;;;;;;;35.90;21.00;;;;;;;0.19;100.00;97847.88;52217;1272;1096996;-83
2024/01/18 00:30:59;;;;;;;42.70;22.60;;;;;;;0.21;100.00;97842.50;52360;1258;1097538;-82
2024/01/18 00:33:45;;;;;;;41.50;23.10;;;;;;;0.24;100.00;97839.21;52501;1261;1097192;-82
2024/01/18 00:36:31;;;;;;;40.60;23.30;;;;;;;0.25;100.00;97844.85;52462;1261;1097075;-82
2024/01/18 00:39:19;;;;;;;40.10;22.20;;;;;;;0.28;100.00;97843.10;52522;1258;1097977;-81
2024/01/18 00:42:05;;;;;;;41.30;22.10;;;;;;;0.30;100.00;97846.98;52493;1261;1097480;-83
2024/01/18 00:44:51;;;;;;;40.50;23.70;;;;;;;0.31;100.00;97848.23;52447;1258;1098216;-83
2024/01/18 00:47:36;;;;;;;42.80;23.10;;;;;;;0.33;100.00;97845.44;52422;1261;1096884;-84
2024/01/18 00:50:22;;;;;;;37.50;22.60;;;;;;;0.36;100.00;97837.27;52454;1261;1097440;-83
2024/01/18 00:53:08;;;;;;;40.40;21.90;;;;;;;0.40;100.00;97825.91;52358;1263;1096822;-83
2024/01/18 00:55:54;;;;;;;37.70;22.00;;;;;;;0.45;100.00;97829.56;52266;1258;1097475;-82
2024/01/18 00:58:40;;;;;;;36.50;21.50;;;;;;;0.47;100.00;97833.48;52615;1261;1097792;-83
2024/01/18 01:01:26;;;;;;;37.80;22.20;;;;;;;0.50;100.00;97832.16;52380;1261;1097426;-82
2024/01/18 01:04:12;;;;;;;34.00;20.60;;;;;;;0.53;100.00;97830.80;52399;1258;1098193;-83
2024/01/18 01:06:58;;;;;;;38.20;22.00;;;;;;;0.56;100.00;97830.83;52586;1261;1097592;-82
2024/01/18 01:09:44;;;;;;;37.10;21.50;;;;;;;0.59;100.00;97822.95;52544;1260;1097475;-82
2024/01/18 01:12:30;;;;;;;38.10;21.30;;;;;;;0.62;100.00;97833.10;52467;1261;1097152;-82
2024/01/18 01:15:15;;;;;;;37.10;19.80;;;;;;;0.64;100.00;97830.53;52414;1257;1097545;-83
2024/01/18 01:18:02;;;;;;;36.50;20.70;;;;;;;0.67;100.00;97826.05;52441;1266;1097451;-83
2024/01/18 01:20:48;;;;;;;38.20;21.50;;;;;;;0.69;100.00;97827.52;52430;1261;1096729;-81
2024/01/18 01:23:41;;;;;;;32.80;20.50;;;;;;;0.71;100.00;97822.99;52403;1261;1097498;-83
2024/01/18 01:26:27;;;;;;;35.60;19.90;;;;;;;0.74;100.00;97823.02;52480;1258;1098060;-82
2024/01/18 01:29:12;;;;;;;32.50;18.60;;;;;;;0.76;100.00;97815.56;52290;1257;1096647;-83
2024/01/18 01:31:58;;;;;;;36.70;20.20;;;;;;;0.78;100.00;97817.27;52414;1263;1097608;-82
2024/01/18 01:34:43;;;;;;;35.70;19.90;;;;;;;0.81;100.00;97814.09;52441;1259;1097097;-82
2024/01/18 01:37:29;;;;;;;32.50;19.60;;;;;;;0.83;100.00;97816.02;52306;1263;1097382;-82
2024/01/18 01:40:15;;;;;;;31.60;19.00;;;;;;;0.86;100.00;97815.06;52249;1261;1097584;-82
2024/01/18 01:43:01;;;;;;;31.50;18.70;;;;;;;0.88;100.00;97814.71;52244;1260;1098780;-82
2024/01/18 01:45:48;;;;;;;33.10;18.80;;;;;;;0.91;100.00;97810.20;52532;1257;1097966;-83
2024/01/18 01:48:34;;;;;;;36.10;19.30;;;;;;;0.94;100.00;97816.06;52511;1263;1096840;-83
2024/01/18 01:51:19;;;;;;;38.70;21.10;;;;;;;0.97;100.00;97812.70;52436;1259;1098113;-83
2024/01/18 01:54:06;;;;;;;36.40;21.10;;;;;;;0.98;100.00;97812.23;52404;1261;1098013;-82
2024/01/18 01:56:54;;;;;;;36.30;19.20;;;;;;;0.99;100.00;97813.14;52444;1264;1096733;-83
2024/01/18 01:59:40;;;;;;;33.70;19.60;;;;;;;1.01;100.00;97809.54;52410;1260;1096738;-83
2024/01/18 02:02:26;;;;;;;31.90;18.60;;;;;;;1.04;100.00;97808.34;52431;1260;1097842;-82
2024/01/18 02:05:13;;;;;;;38.20;20.30;;;;;;;1.05;100.00;97806.76;52400;1258;1097679;-82
2024/01/18 02:07:59;;;;;;;35.90;19.90;;;;;;;1.08;100.00;97799.39;52527;1260;1098468;-82
2024/01/18 02:10:45;;;;;;;30.30;18.90;;;;;;;1.09;100.00;97789.73;52297;1261;1096800;-81
2024/01/18 02:13:31;;;;;;;36.00;20.20;;;;;;;1.11;100.00;97794.50;52175;1271;1097350;-83
2024/01/18 02:16:16;;;;;;;41.60;21.40;;;;;;;1.13;100.00;97791.67;52223;1261;1096705;-82
2024/01/18 02:19:05;;;;;;;32.80;19.50;;;;;;;1.14;100.00;97791.02;52418;1264;1096710;-82
2024/01/18 02:21:51;;;;;;;34.80;18.70;;;;;;;1.15;100.00;97786.45;52184;1257;1097083;-81
2024/01/18 02:25:19;;;;;;;33.30;20.30;;;;;;;1.16;100.00;97785.27;52349;1271;1097421;-83
2024/01/18 02:28:04;;;;;;;33.10;19.60;;;;;;;1.17;100.00;97775.54;52504;1260;1097931;-83
2024/01/18 02:30:50;;;;;;;35.40;19.80;;;;;;;1.18;100.00;97781.52;52485;1261;1096988;-82
2024/01/18 02:33:35;;;;;;;36.10;19.70;;;;;;;1.19;100.00;97780.46;52380;1261;1096710;-81
2024/01/18 02:36:21;;;;;;;33.40;19.40;;;;;;;1.22;100.00;97790.66;52372;1260;1097222;-82
2024/01/18 02:39:07;;;;;;;34.50;20.10;;;;;;;1.23;100.00;97781.98;52516;1261;1097273;-82
2024/01/18 02:41:54;;;;;;;33.40;19.50;;;;;;;1.23;100.00;97782.60;52433;1260;1097295;-82
2024/01/18 02:44:41;;;;;;;33.60;18.60;;;;;;;1.24;100.00;97770.84;52464;1256;1097432;-82
2024/01/18 02:47:28;;;;;;;32.60;20.40;;;;;;;1.26;100.00;97775.71;52364;1260;1096663;-82
2024/01/18 02:50:13;;;;;;;37.50;22.10;;;;;;;1.28;100.00;97782.98;52585;1263;1096889;-81
2024/01/18 02:52:58;;;;;;;42.00;25.50;;;;;;;1.29;100.00;97784.30;52381;1267;1097795;-81
2024/01/18 02:55:44;;;;;;;35.80;21.10;;;;;;;1.31;100.00;97783.40;52283;1263;1097581;-81
2024/01/18 02:58:30;;;;;;;39.90;21.70;;;;;;;1.30;100.00;97785.39;52354;1261;1096623;-81
2024/01/18 03:01:15;;;;;;;33.00;20.00;;;;;;;1.30;100.00;97789.43;52321;1257;1097821;-82
2024/01/18 03:04:01;;;;;;;33.40;20.10;;;;;;;1.30;100.00;97788.34;52424;1260;1096815;-81
2024/01/18 03:06:46;;;;;;;32.50;18.80;;;;;;;1.31;100.00;97786.48;52481;1261;1097997;-82
2024/01/18 03:09:32;;;;;;;35.60;18.00;;;;;;;1.31;100.00;97785.66;52414;1257;1096617;-82
2024/01/18 03:12:18;;;;;;;30.80;17.90;;;;;;;1.31;100.00;97785.99;52437;1264;1097198;-81
2024/01/18 03:15:05;;;;;;;30.00;17.80;;;;;;;1.31;100.00;97790.09;52399;1257;1097894;-81
2024/01/18 03:17:51;;;;;;;33.40;19.30;;;;;;;1.32;100.00;97792.16;52597;1259;1097075;-82
2024/01/18 03:20:36;;;;;;;31.80;17.70;;;;;;;1.32;100.00;97794.13;52292;1263;1096554;-81
2024/01/18 03:23:22;;;;;;;34.60;18.60;;;;;;;1.32;100.00;97804.46;52343;1264;1097908;-81
2024/01/18 03:26:08;;;;;;;30.60;17.60;;;;;;;1.32;100.00;97812.48;52433;1261;1097469;-81
2024/01/18 03:28:54;;;;;;;33.40;19.50;;;;;;;1.33;100.00;97823.29;52377;1261;1098263;-82
2024/01/18 03:31:40;;;;;;;35.90;20.30;;;;;;;1.34;100.00;97826.41;52115;1257;1231857;-82
2024/01/18 03:34:26;;;;;;;32.00;20.00;;;;;;;1.35;100.00;97824.14;52546;1257;1108779;-82
2024/01/18 03:37:11;;;;;;;30.60;19.80;;;;;;;1.36;100.00;97817.54;52390;1257;1098120;-82
2024/01/18 03:39:57;;;;;;;37.30;20.70;;;;;;;1.37;100.00;97811.02;52344;1257;1096660;-82
2024/01/18 03:42:42;;;;;;;34.80;19.40;;;;;;;1.38;100.00;97815.73;52628;1263;1097477;-82
2024/01/18 03:45:27;;;;;;;33.20;20.80;;;;;;;1.36;100.00;97815.70;52410;1261;1097415;-81
2024/01/18 03:48:14;;;;;;;38.30;21.10;;;;;;;1.36;100.00;97818.30;52546;1257;1097958;-81
2024/01/18 03:50:59;;;;;;;43.50;22.00;;;;;;;1.38;100.00;97822.73;52472;1257;1097159;-82
2024/01/18 03:53:45;;;;;;;37.80;20.90;;;;;;;1.38;100.00;97825.73;52349;1262;1098421;-82
2024/01/18 03:56:31;;;;;;;37.10;21.20;;;;;;;1.39;100.00;97825.18;52523;1263;1097239;-81
2024/01/18 03:59:16;;;;;;;40.80;22.50;;;;;;;1.40;100.00;97825.78;52397;1263;1097199;-82
2024/01/18 04:02:03;;;;;;;34.60;21.30;;;;;;;1.40;100.00;97822.64;52323;1257;1097144;-80
2024/01/18 04:04:48;;;;;;;39.60;22.40;;;;;;;1.41;100.00;97829.73;52569;1260;1098071;-81
2024/01/18 04:07:35;;;;;;;36.30;21.20;;;;;;;1.40;100.00;97836.67;52482;1260;1097218;-81
2024/01/18 04:10:21;;;;;;;42.00;23.00;;;;;;;1.40;100.00;97840.16;52545;1259;1097361;-81
2024/01/18 04:13:07;;;;;;;40.50;23.20;;;;;;;1.41;100.00;97849.34;52521;1261;1097452;-81
2024/01/18 04:15:52;;;;;;;41.20;22.80;;;;;;;1.42;100.00;97847.66;52456;1257;1098039;-81
2024/01/18 04:18:38;;;;;;;42.40;23.50;;;;;;;1.44;100.00;97850.77;52452;1260;1097294;-82
2024/01/18 04:21:24;;;;;;;42.70;24.20;;;;;;;1.44;100.00;97851.77;52224;1264;1096747;-80
2024/01/18 04:24:10;;;;;;;43.30;25.70;;;;;;;1.43;100.00;97852.02;52530;1257;1097250;-80
2024/01/18 04:26:56;;;;;;;46.40;24.90;;;;;;;1.44;100.00;97857.41;52322;1260;1098040;-81
2024/01/18 04:29:41;;;;;;;50.30;28.90;;;;;;;1.43;100.00;97858.19;52369;1257;1097683;-81
2024/01/18 04:32:27;;;;;;;48.30;28.90;;;;;;;1.44;100.00;97863.46;52505;1257;1097083;-82
2024/01/18 04:35:12;;;;;;;49.00;29.60;;;;;;;1.44;100.00;97870.89;52537;1258;1097302;-82
2024/01/18 04:37:58;;;;;;;45.60;27.80;;;;;;;1.47;100.00;97874.23;52545;1260;1097399;-81
2024/01/18 04:40:44;;;;;;;49.00;28.90;;;;;;;1.47;100.00;97870.37;52317;1263;1096843;-81
2024/01/18 04:43:29;;;;;;;44.20;25.90;;;;;;;1.47;100.00;97869.27;52361;1255;1096950;-81
2024/01/18 04:46:15;;;;;;;50.00;29.50;;;;;;;1.48;100.00;97874.13;52478;1257;1097365;-81
2024/01/18 04:49:02;;;;;;;45.90;27.00;;;;;;;1.49;100.00;97881.31;52445;1264;1097374;-81
2024/01/18 04:51:47;;;;;;;51.00;28.40;;;;;;;1.50;100.00;97878.10;52520;1257;1096676;-81
2024/01/18 04:54:33;;;;;;;51.00;29.00;;;;;;;1.50;100.00;97881.55;52581;1260;1097420;-81
2024/01/18 04:57:19;;;;;;;52.60;29.70;;;;;;;1.51;100.00;97887.27;52522;1261;1097733;-80
2024/01/18 05:00:10;;;;;;;51.70;28.90;;;;;;;1.51;100.00;97893.77;52287;1260;1096798;-82
2024/01/18 05:02:56;;;;;;;57.00;31.90;;;;;;;1.51;100.00;97897.42;52527;1257;1097562;-81
2024/01/18 05:05:41;;;;;;;57.70;31.70;;;;;;;1.54;100.00;97904.83;52341;1257;1097146;-82
2024/01/18 05:08:27;;;;;;;55.80;30.90;;;;;;;1.54;100.00;97908.36;52318;1263;1096881;-81
2024/01/18 05:11:12;;;;;;;55.70;31.20;;;;;;;1.54;100.00;97908.88;52405;1258;1097781;-81
2024/01/18 05:13:58;;;;;;;52.00;29.40;;;;;;;1.54;100.00;97909.97;52262;1258;1098015;-81
2024/01/18 05:16:50;;;;;;;54.20;31.70;;;;;;;1.53;100.00;97913.61;52369;1258;1097543;-81
2024/01/18 05:19:37;;;;;;;57.90;33.80;;;;;;;1.52;100.00;97907.71;52404;1271;1097169;-81
2024/01/18 05:22:22;;;;;;;56.00;31.90;;;;;;;1.52;100.00;97905.39;52290;1263;1097424;-81
2024/01/18 05:25:08;;;;;;;56.80;31.80;;;;;;;1.54;100.00;97905.75;52478;1257;1098082;-81
2024/01/18 05:27:55;;;;;;;60.10;33.70;;;;;;;1.54;100.00;97920.98;52421;1257;1097217;-82
2024/01/18 05:30:40;;;;;;;61.30;34.50;;;;;;;1.55;100.00;97935.32;52352;1258;1096589;-81
2024/01/18 05:33:27;;;;;;;63.90;33.40;;;;;;;1.55;100.00;97939.33;52342;1263;1097801;-82
2024/01/18 05:36:13;;;;;;;63.30;34.20;;;;;;;1.56;100.00;97943.84;52330;1260;1097666;-81
2024/01/18 05:38:59;;;;;;;59.10;33.00;;;;;;;1.56;100.00;97942.36;52348;1260;1098072;-81
2024/01/18 05:41:45;;;;;;;67.20;36.30;;;;;;;1.57;100.00;97946.17;52422;1257;1097632;-82
2024/01/18 05:44:30;;;;;;;63.30;34.30;;;;;;;1.57;100.00;97947.65;52585;1257;1097617;-81
2024/01/18 05:47:16;;;;;;;66.50;36.10;;;;;;;1.58;100.00;97948.48;52335;1261;1098370;-81
2024/01/18 05:50:02;;;;;;;60.80;33.10;;;;;;;1.58;100.00;97962.88;52247;1261;1096963;-82
2024/01/18 05:52:48;;;;;;;58.20;33.10;;;;;;;1.59;100.00;97968.09;52333;1261;1096844;-81
2024/01/18 05:55:35;;;;;;;62.20;33.50;;;;;;;1.60;100.00;97967.81;52339;1260;1096929;-80
2024/01/18 05:58:22;;;;;;;61.30;34.20;;;;;;;1.61;100.00;97972.05;52477;1255;1097012;-82
2024/01/18 06:01:08;;;;;;;62.00;33.90;;;;;;;1.60;100.00;97971.45;52502;1256;1097866;-84
2024/01/18 06:03:53;;;;;;;59.70;33.70;;;;;;;1.59;100.00;97978.11;52442;1260;1097019;-80
2024/01/18 06:06:39;;;;;;;58.80;33.90;;;;;;;1.57;100.00;97977.98;52261;1260;1096917;-82
2024/01/18 06:09:25;;;;;;;63.90;34.70;;;;;;;1.57;100.00;97982.27;52371;1257;1098030;-81
2024/01/18 06:12:10;;;;;;;60.70;32.30;;;;;;;1.58;100.00;97985.81;52568;1260;1097071;-82
2024/01/18 06:14:57;;;;;;;69.10;37.00;;;;;;;1.56;100.00;97994.45;52559;1260;1096822;-80
2024/01/18 06:17:43;;;;;;;65.00;32.80;;;;;;;1.55;100.00;97997.19;52357;1257;1097681;-81
2024/01/18 06:20:32;;;;;;;64.40;34.00;;;;;;;1.53;100.00;98005.31;52401;1272;1097090;-80
2024/01/18 06:23:18;;;;;;;66.40;35.10;;;;;;;1.53;100.00;98005.73;52618;1257;1098145;-82
2024/01/18 06:26:09;;;;;;;59.30;33.10;;;;;;;1.51;100.00;98007.56;52527;1260;1098083;-81
2024/01/18 06:28:56;;;;;;;62.70;33.80;;;;;;;1.50;100.00;98013.31;52562;1260;1097786;-80
2024/01/18 06:31:42;;;;;;;67.30;37.00;;;;;;;1.49;100.00;98018.02;52352;1260;1096934;-81
2024/01/18 06:34:27;;;;;;;62.00;32.40;;;;;;;1.49;100.00;98021.02;52697;1260;1097228;-81
2024/01/18 06:37:13;;;;;;;61.40;32.60;;;;;;;1.49;100.00;98016.59;52451;1261;1096983;-81
2024/01/18 06:39:58;;;;;;;65.00;33.90;;;;;;;1.50;100.00;98022.74;52368;1258;1097174;-81
2024/01/18 06:42:44;;;;;;;63.80;34.60;;;;;;;1.51;100.00;98029.56;52284;1257;1098071;-81
2024/01/18 06:45:30;;;;;;;59.60;33.30;;;;;;;1.50;100.00;98035.77;52452;1261;1097039;-80
2024/01/18 06:48:17;;;;;;;62.90;32.40;;;;;;;1.57;100.00;98043.11;52580;1257;1098610;-82
2024/01/18 06:51:03;;;;;;;63.50;32.90;;;;;;;1.58;100.00;98037.31;52502;1260;1097011;-81
2024/01/18 06:53:52;;;;;;;69.40;33.10;;;;;;;1.55;100.00;98038.55;52464;1260;1097993;-82
2024/01/18 06:56:37;;;;;;;67.90;34.90;;;;;;;1.51;100.00;98039.70;52288;1261;1098109;-82
2024/01/18 06:59:23;;;;;;;60.50;31.70;;;;;;;1.48;100.00;98040.30;52506;1261;1097353;-82
2024/01/18 07:02:08;;;;;;;65.60;32.40;;;;;;;1.51;100.00;98047.63;52607;1260;1097956;-82
2024/01/18 07:04:54;;;;;;;58.50;30.60;;;;;;;1.52;100.00;98052.27;52499;1261;1096843;-82
2024/01/18 07:07:41;;;;;;;57.10;30.40;;;;;;;1.48;100.00;98055.59;52345;1258;1096644;-83
2024/01/18 07:10:27;;;;;;;65.90;31.90;;;;;;;1.45;100.00;98055.23;52464;1263;1097792;-81
2024/01/18 07:13:13;;;;;;;65.80;31.10;;;;;;;1.43;100.00;98061.67;52522;1261;1097329;-82
2024/01/18 07:15:58;;;;;;;62.20;31.80;;;;;;;1.42;100.00;98065.84;52379;1260;1097146;-82
2024/01/18 07:18:46;;;;;;;61.00;32.00;;;;;;;1.39;100.00;98068.46;52334;1257;1098035;-82
2024/01/18 07:21:32;;;;;;;62.20;31.10;;;;;;;1.37;100.00;98065.23;52337;1260;1097148;-81
2024/01/18 07:24:18;;;;;;;61.90;32.30;;;;;;;1.36;100.00;98064.90;52355;1257;1097624;-81
2024/01/18 07:27:09;;;;;;;62.10;30.90;;;;;;;1.36;100.00;98066.95;52511;1257;1097958;-83
2024/01/18 07:29:54;;;;;;;61.80;30.70;;;;;;;1.37;100.00;98075.79;52418;1257;1097919;-82
2024/01/18 07:32:40;;;;;;;62.20;31.70;;;;;;;1.38;100.00;98085.00;52547;1260;1097718;-82
2024/01/18 07:35:26;;;;;;;66.40;31.30;;;;;;;1.38;100.00;98088.54;52469;1257;1097532;-83
2024/01/18 07:38:13;;;;;;;61.00;31.30;;;;;;;1.40;100.00;98093.95;52421;1260;1097367;-82
2024/01/18 07:40:59;;;;;;;68.60;36.80;;;;;;;1.39;100.00;98106.13;52217;1257;1097850;-81
2024/01/18 07:43:44;;;;;;;68.00;34.70;;;;;;;1.43;100.00;98110.77;52372;1258;1098694;-82
2024/01/18 07:46:30;;;;;;;74.40;35.60;;;;;;;1.42;100.00;98110.29;52603;1258;1098095;-82
2024/01/18 07:49:16;;;;;;;72.90;36.00;;;;;;;1.43;100.00;98123.77;52337;1260;1097504;-83
2024/01/18 07:52:02;;;;;;;72.10;33.90;;;;;;;1.44;100.00;98129.48;52249;1255;1097234;-83
2024/01/18 07:54:49;;;;;;;69.30;34.70;;;;;;;1.44;100.00;98120.06;52429;1257;1097408;-82
2024/01/18 07:57:36;;;;;;;69.20;34.10;;;;;;;1.46;100.00;98124.52;52402;1264;1098058;-82
2024/01/18 08:00:22;;;;;;;65.90;33.10;;;;;;;1.49;100.00;98130.98;52373;1256;1097584;-82
2024/01/18 08:03:07;;;;;;;66.50;33.40;;;;;;;1.49;100.00;98134.61;52395;1260;1097328;-83
2024/01/18 08:05:55;;;;;;;61.70;34.00;;;;;;;1.49;100.00;98139.53;52331;1260;1097546;-82
2024/01/18 08:08:41;;;;;;;63.70;32.50;;;;;;;1.51;100.00;98141.86;52410;1264;1097524;-82
2024/01/18 08:11:27;;;;;;;61.80;30.90;;;;;;;1.55;100.00;98150.58;52371;1257;1098113;-81
2024/01/18 08:14:13;;;;;;;63.70;31.90;;;;;;;1.54;100.00;98161.94;52622;1257;1097411;-82
2024/01/18 08:16:59;;;;;;;61.00;30.30;;;;;;;1.51;100.00;98166.46;52313;1261;1097573;-81
2024/01/18 08:19:45;;;;;;;64.90;32.90;;;;;;;1.45;100.00;98175.69;52287;1261;1098351;-82
2024/01/18 08:22:31;;;;;;;66.90;32.20;;;;;;;1.41;100.00;98176.50;52468;1257;1096600;-82
2024/01/18 08:25:17;;;;;;;66.90;31.90;;;;;;;1.41;100.00;98179.54;52532;1260;1099243;-82
2024/01/18 08:28:03;;;;;;;62.90;31.70;;;;;;;1.42;100.00;98177.80;52323;1264;1097479;-82
2024/01/18 08:30:49;;;;;;;61.60;31.20;;;;;;;1.42;100.00;98184.55;52495;1257;1097557;-82
2024/01/18 08:33:35;;;;;;;62.30;30.30;;;;;;;1.41;100.00;98190.12;52425;1255;1097397;-82
2024/01/18 08:36:20;;;;;;;71.30;32.80;;;;;;;1.42;100.00;98197.41;52318;1257;1097834;-81
2024/01/18 08:39:07;;;;;;;62.40;31.40;;;;;;;1.43;100.00;98203.61;52334;1257;1096967;-82
2024/01/18 08:41:56;;;;;;;60.00;30.30;;;;;;;1.39;100.00;98211.95;52280;1260;1097624;-81
2024/01/18 08:44:46;;;;;;;67.50;32.20;;;;;;;1.32;100.00;98218.86;52415;1260;1097924;-81
2024/01/18 08:47:32;;;;;;;61.80;31.60;;;;;;;1.27;100.00;98224.45;52498;1261;1096759;-82
2024/01/18 08:50:20;;;;;;;72.70;34.40;;;;;;;1.24;100.00;98224.59;52232;1258;1096937;-82
2024/01/18 08:53:06;;;;;;;76.20;36.20;;;;;;;1.22;100.00;98227.44;52438;1258;1097746;-82
2024/01/18 08:55:52;;;;;;;65.10;32.10;;;;;;;1.20;100.00;98231.84;52492;1257;1097494;-80
2024/01/18 08:58:38;;;;;;;71.00;35.00;;;;;;;1.17;100.00;98235.10;52416;1256;1096675;-80
2024/01/18 09:01:24;;;;;;;67.00;32.80;;;;;;;1.13;100.00;98232.21;52335;1261;1098109;-82
2024/01/18 09:04:10;;;;;;;69.10;33.30;;;;;;;1.10;100.00;98237.23;52393;1255;1096634;-81
2024/01/18 09:06:55;;;;;;;70.10;32.70;;;;;;;1.09;100.00;98235.52;52268;1257;1097923;-81
2024/01/18 09:09:41;;;;;;;72.50;33.90;;;;;;;1.12;100.00;98235.44;52393;1260;1097463;-81
2024/01/18 09:12:27;;;;;;;64.50;33.20;;;;;;;1.16;100.00;98235.73;52332;1257;1096887;-81
2024/01/18 09:15:13;;;;;;;71.00;34.90;;;;;;;1.20;100.00;98231.73;52528;1257;1096746;-81
2024/01/18 09:17:59;;;;;;;74.20;35.00;;;;;;;1.21;100.00;98236.92;52413;1261;1098599;-82
2024/01/18 09:20:45;;;;;;;70.30;36.40;;;;;;;1.20;100.00;98239.54;52451;1258;1097304;-82
2024/01/18 09:23:31;;;;;;;76.40;36.60;;;;;;;1.17;100.00;98242.48;52356;1261;1097517;-81
2024/01/18 09:26:17;;;;;;;78.90;36.60;;;;;;;1.18;100.00;98239.66;52335;1260;1097263;-81
2024/01/18 09:29:02;;;;;;;71.20;35.90;;;;;;;1.24;100.00;98240.96;52488;1260;1097857;-82
2024/01/18 09:31:48;;;;;;;71.70;35.30;;;;;;;1.25;100.00;98236.73;52618;1257;1097461;-81
2024/01/18 09:34:34;;;;;;;78.40;36.80;;;;;;;1.28;100.00;98239.56;52569;1260;1097284;-81
2024/01/18 09:37:21;;;;;;;66.60;33.40;;;;;;;1.33;100.00;98245.39;52583;1260;1097842;-81
2024/01/18 09:40:11;;;;;;;74.40;36.60;;;;;;;1.34;100.00;98254.09;52455;1257;1097176;-81
2024/01/18 09:43:03;;;;;;;59.40;30.50;;;;;;;1.39;100.00;98251.77;52405;1260;1096832;-81
2024/01/18 09:45:52;;;;;;;63.80;33.50;;;;;;;1.45;100.00;98244.66;52519;1260;1097491;-82
2024/01/18 09:48:39;;;;;;;60.90;31.70;;;;;;;1.50;100.00;98239.98;52473;1257;1097004;-82
2024/01/18 09:51:24;;;;;;;61.60;31.70;;;;;;;1.53;100.00;98242.52;52554;1260;1097110;-82
2024/01/18 09:54:10;;;;;;;71.50;35.00;;;;;;;1.55;100.00;98244.82;52387;1263;1098325;-83
2024/01/18 09:57:00;;;;;;;67.20;34.80;;;;;;;1.58;100.00;98245.70;52441;1257;1097089;-82
2024/01/18 09:59:48;;;;;;;69.10;34.20;;;;;;;1.59;100.00;98253.58;52478;1255;1098277;-82
2024/01/18 10:02:34;;;;;;;68.30;34.90;;;;;;;1.53;100.00;98253.31;52435;1255;1097122;-82
2024/01/18 10:05:20;;;;;;;66.70;34.10;;;;;;;1.50;100.00;98254.28;52508;1257;1096621;-82
2024/01/18 10:08:06;;;;;;;68.80;35.20;;;;;;;1.40;100.00;98250.80;52524;1264;1097004;-83
2024/01/18 10:10:51;;;;;;;67.70;38.60;;;;;;;1.29;100.00;98247.53;52558;1258;1097169;-83
2024/01/18 10:13:50;;;;;;;69.20;36.40;;;;;;;1.25;100.00;98247.33;52392;1256;1097175;-82
2024/01/18 10:16:38;;;;;;;65.30;33.10;;;;;;;1.29;100.00;98263.88;52511;1258;1096787;-82
2024/01/18 10:19:25;;;;;;;68.10;36.20;;;;;;;1.32;100.00;98266.19;52499;1263;1097577;-83
2024/01/18 10:22:11;;;;;;;69.90;36.40;;;;;;;1.34;100.00;98276.80;52342;1256;1097422;-82
2024/01/18 10:24:58;;;;;;;67.00;34.30;;;;;;;1.37;100.00;98286.45;52234;1257;1097542;-82
2024/01/18 10:27:44;;;;;;;72.50;36.20;;;;;;;1.38;100.00;98297.41;52510;1260;1097423;-82
2024/01/18 10:30:31;;;;;;;66.70;35.10;;;;;;;1.36;100.00;98305.87;52368;1260;1097455;-83
2024/01/18 10:33:17;;;;;;;70.00;35.60;;;;;;;1.34;100.00;98311.70;52508;1260;1097032;-83
2024/01/18 10:36:03;;;;;;;70.60;37.90;;;;;;;1.34;100.00;98315.80;52601;1257;1097191;-82
2024/01/18 10:38:49;;;;;;;65.70;35.20;;;;;;;1.34;100.00;98319.82;52391;1258;1097891;-82
2024/01/18 10:41:35;;;;;;;76.20;38.70;;;;;;;1.31;100.00;98325.29;52495;1257;1097436;-83
2024/01/18 10:44:21;;;;;;;65.10;34.00;;;;;;;1.31;100.00;98321.92;52440;1258;1096600;-83
2024/01/18 10:47:08;;;;;;;71.50;36.90;;;;;;;1.30;100.00;98322.15;52459;1255;1096903;-83
2024/01/18 10:49:55;;;;;;;73.90;39.30;;;;;;;1.25;100.00;98320.66;52646;1260;1098604;-81
2024/01/18 10:52:43;;;;;;;75.20;38.30;;;;;;;1.26;100.00;98321.77;52512;1258;1097300;-83
2024/01/18 10:55:29;;;;;;;78.00;37.90;;;;;;;1.28;100.00;98327.67;52418;1257;1097229;-83
2024/01/18 10:58:15;;;;;;;79.50;39.50;;;;;;;1.24;100.00;98324.43;52399;1260;1096945;-82
2024/01/18 11:01:01;;;;;;;75.40;39.70;;;;;;;1.20;100.00;98317.91;52533;1255;1096799;-83
2024/01/18 11:03:46;;;;;;;72.70;37.00;;;;;;;1.17;100.00;98314.39;52606;1258;1096819;-83
2024/01/18 11:06:34;;;;;;;69.80;37.60;;;;;;;1.15;100.00;98319.70;52556;1258;1098479;-83
2024/01/18 11:09:24;;;;;;;69.10;36.00;;;;;;;1.14;100.00;98333.52;52532;1260;1097351;-83
2024/01/18 11:12:13;;;;;;;69.50;36.60;;;;;;;1.15;100.00;98337.58;52736;1255;1097440;-83
2024/01/18 11:15:00;;;;;;;71.60;36.70;;;;;;;1.13;100.00;98343.50;52563;1259;1097452;-82
2024/01/18 11:17:47;;;;;;;67.00;36.70;;;;;;;1.14;100.00;98351.35;52434;1255;1098190;-82
2024/01/18 11:20:33;;;;;;;69.60;37.30;;;;;;;1.15;100.00;98355.06;52491;1264;1097403;-83
2024/01/18 11:23:22;;;;;;;78.30;39.60;;;;;;;1.19;100.00;98355.17;52391;1257;1098220;-83
2024/01/18 11:26:19;;;;;;;74.50;40.20;;;;;;;1.24;100.00;98359.73;52982;1261;1096853;-83
2024/01/18 11:29:18;;;;;;;74.60;39.30;;;;;;;1.31;100.00;98365.54;52433;1264;1097356;-83
2024/01/18 11:32:11;;;;;;;74.90;39.30;;;;;;;1.33;100.00;98365.45;52434;1260;1097964;-83
2024/01/18 11:35:11;;;;;;;78.40;39.00;;;;;;;1.28;100.00;98370.70;52638;1257;1097691;-82
2024/01/18 11:38:32;;;;;;;77.00;42.80;;;;;;;1.16;100.00;98373.60;52408;1257;1097787;-82
2024/01/18 11:41:22;;;;;;;78.00;40.50;;;;;;;1.09;100.00;98385.83;52445;1257;1096907;-82
2024/01/18 11:44:10;;;;;;;74.20;39.20;;;;;;;1.09;100.00;98392.54;52572;1260;1097839;-83
2024/01/18 11:46:57;;;;;;;74.80;41.40;;;;;;;1.13;100.00;98397.13;52568;1260;1097314;-82
2024/01/18 11:49:43;;;;;;;71.20;39.00;;;;;;;1.17;100.00;98404.08;52524;1257;1098718;-83
2024/01/18 11:52:32;;;;;;;76.80;40.50;;;;;;;1.13;100.00;98405.02;52522;1257;1097182;-82
2024/01/18 11:55:21;;;;;;;77.60;44.00;;;;;;;1.12;100.00;98403.56;52598;1257;1097675;-82
2024/01/18 11:58:08;;;;;;;85.00;46.20;;;;;;;1.08;100.00;98403.17;52396;1257;1096733;-82
2024/01/18 12:00:55;;;;;;;85.10;43.90;;;;;;;1.05;100.00;98396.19;52594;1257;1098507;-81
2024/01/18 12:03:41;;;;;;;76.90;40.80;;;;;;;1.01;100.00;98397.80;52489;1257;1097260;-81
2024/01/18 12:06:28;;;;;;;88.10;48.80;;;;;;;0.95;100.00;98395.02;52378;1273;1097216;-80
2024/01/18 12:09:15;;;;;;;90.00;48.80;;;;;;;0.87;100.00;98394.14;52492;1256;1097069;-83
2024/01/18 12:12:02;;;;;;;88.50;46.40;;;;;;;0.86;100.00;98385.11;52308;1264;1097899;-84
2024/01/18 12:14:48;;;;;;;88.70;48.30;;;;;;;0.89;100.00;98379.41;52436;1255;1097387;-82
2024/01/18 12:17:34;;;;;;;88.30;47.70;;;;;;;0.94;100.00;98378.83;52512;1261;1097544;-82
2024/01/18 12:20:20;;;;;;;88.80;46.50;;;;;;;0.95;100.00;98376.06;52433;1260;1097670;-82
2024/01/18 12:23:13;;;;;;;88.50;47.10;;;;;;;0.98;100.00;98385.38;52354;1261;1097389;-82
2024/01/18 12:25:59;;;;;;;80.20;43.00;;;;;;;1.00;100.00;98397.12;52575;1257;1097614;-81
2024/01/18 12:28:46;;;;;;;92.60;48.00;;;;;;;0.98;100.00;98401.19;52590;1256;1096676;-81